createdAt,value
2022-08-05T01:46:42.060Z,73.60
2022-08-05T02:48:06.711Z,99.90
2022-08-05T02:56:29.324Z,99.90
2022-08-05T05:42:30.281Z,99.90
2022-08-05T05:48:08.956Z,99.90
2022-08-05T06:05:25.365Z,99.90
2022-08-05T10:54:01.867Z,99.90
2022-08-05T10:57:03.299Z,92.30
2022-08-05T11:00:18.668Z,92.90
2022-08-05T11:03:33.721Z,92.40
2022-08-05T11:07:03.025Z,92.20
2022-08-05T11:10:03.684Z,92.10
2022-08-05T11:12:55.225Z,92.70
2022-08-05T11:16:00.894Z,92.50
2022-08-05T11:20:16.826Z,92.10
2022-08-05T11:23:06.011Z,91.40
2022-08-05T11:26:33.646Z,89.60
2022-08-05T11:34:08.158Z,91.30
2022-08-05T11:36:55.453Z,90.90
2022-08-05T11:39:49.996Z,90.40
2022-08-05T11:42:46.864Z,89.50
2022-08-05T11:46:23.374Z,89.10
2022-08-05T12:40:58.520Z,87.80
2022-08-05T12:43:54.752Z,93.20
2022-08-05T12:46:45.713Z,91.70
2022-08-05T12:50:03.697Z,92.10
2022-08-05T12:55:47.041Z,91.60
2022-08-05T12:58:50.061Z,91.90
2022-08-05T13:02:00.419Z,92.60
2022-08-05T13:04:52.536Z,91.90
2022-08-05T13:10:50.510Z,92.00
2022-08-05T13:14:05.669Z,91.80
2022-08-05T13:16:48.542Z,91.60
2022-08-05T13:19:40.402Z,91.00
2022-08-05T13:28:40.918Z,90.60
2022-08-05T13:32:03.363Z,91.70
2022-08-05T13:34:38.685Z,91.50
2022-08-05T13:37:34.422Z,91.50
2022-08-05T13:40:36.947Z,89.90
2022-08-05T14:10:31.057Z,89.60
2022-08-05T14:24:59.415Z,91.30
2022-08-05T14:27:49.096Z,90.40
2022-08-05T14:50:51.690Z,90.50
2022-08-05T22:10:49.973Z,90.60
2022-08-05T22:14:33.491Z,99.90
2022-08-05T22:32:06.366Z,99.90
2022-08-05T22:34:57.186Z,99.90
2022-08-05T22:37:58.515Z,99.90
2022-08-05T22:40:49.616Z,99.90
2022-08-05T22:43:42.256Z,99.90
2022-08-05T22:46:29.257Z,99.90
2022-08-05T22:50:17.431Z,99.90
2022-08-05T22:52:32.609Z,99.90
2022-08-05T22:55:23.260Z,99.90
2022-08-05T22:58:11.729Z,99.90
2022-08-05T23:01:02.314Z,99.90
2022-08-05T23:03:58.869Z,99.90
2022-08-05T23:06:47.628Z,99.90
2022-08-05T23:09:57.016Z,99.90
2022-08-05T23:12:43.757Z,99.90
2022-08-05T23:26:45.377Z,99.90
2022-08-05T23:29:35.311Z,99.90
2022-08-05T23:32:23.992Z,99.90
